createdAt,value
2023-05-01T00:00:28.047Z,10.23
2023-05-01T00:02:58.939Z,11.65
2023-05-01T00:05:29.606Z,13.38
2023-05-01T00:08:00.024Z,13.50
2023-05-01T00:10:29.930Z,15.13
2023-05-01T00:13:00.707Z,12.73
2023-05-01T00:15:30.831Z,15.52
2023-05-01T00:18:01.389Z,13.43
2023-05-01T00:20:32.237Z,14.75
2023-05-01T00:23:02.624Z,13.93
2023-05-01T00:25:32.644Z,12.70
2023-05-01T00:28:03.295Z,16.38
2023-05-01T00:30:35.704Z,17.80
2023-05-01T00:33:07.195Z,19.15
2023-05-01T00:35:37.293Z,14.30
2023-05-01T00:38:08.439Z,20.60
2023-05-01T00:40:47.801Z,15.77
2023-05-01T00:43:18.152Z,15.80
2023-05-01T00:45:48.173Z,104.60
2023-05-01T00:48:18.651Z,41.25
2023-05-01T00:50:51.473Z,23.40
2023-05-01T00:53:22.879Z,16.02
2023-05-01T00:55:52.814Z,15.70
2023-05-01T00:58:23.464Z,16.15
2023-05-01T01:00:54.214Z,18.70
2023-05-01T01:03:24.664Z,16.73
2023-05-01T01:06:15.007Z,18.15
2023-05-01T01:09:00.248Z,14.77
2023-05-01T01:11:39.816Z,16.35
2023-05-01T01:14:21.267Z,17.10
2023-05-01T01:17:03.246Z,14.52
2023-05-01T01:19:51.529Z,11.00
2023-05-01T01:22:25.293Z,16.23
2023-05-01T01:25:29.472Z,9.05
2023-05-01T01:28:05.141Z,16.02
2023-05-01T01:31:10.713Z,16.77
2023-05-01T01:34:25.007Z,16.25
2023-05-01T01:37:09.824Z,18.17
2023-05-01T01:39:47.881Z,16.55
2023-05-01T01:42:23.559Z,14.10
2023-05-01T01:45:00.339Z,17.63
2023-05-01T01:47:34.648Z,11.43
2023-05-01T01:50:08.219Z,13.02
2023-05-01T01:52:42.091Z,12.73
2023-05-01T01:55:16.145Z,10.23
2023-05-01T01:57:48.033Z,9.23
2023-05-01T02:00:19.278Z,15.07
2023-05-01T02:02:54.390Z,11.57
2023-05-01T02:05:26.448Z,9.43
2023-05-01T02:07:59.207Z,10.93
2023-05-01T02:10:31.053Z,11.00
2023-05-01T02:13:03.393Z,10.90
2023-05-01T02:15:35.641Z,10.57
2023-05-01T02:18:07.852Z,9.95
2023-05-01T02:20:39.197Z,7.65
2023-05-01T02:23:10.184Z,6.90
2023-05-01T02:25:41.807Z,6.60
2023-05-01T02:28:15.263Z,6.32
2023-05-01T02:30:46.211Z,10.63
2023-05-01T02:33:16.724Z,7.03
2023-05-01T02:35:48.558Z,8.40
2023-05-01T02:38:20.906Z,7.50
2023-05-01T02:40:56.405Z,5.50
2023-05-01T02:43:29.070Z,5.63
2023-05-01T02:46:00.292Z,7.78
2023-05-01T02:48:34.338Z,8.85
2023-05-01T02:51:05.155Z,7.88
2023-05-01T02:53:36.499Z,5.72
2023-05-01T02:56:17.264Z,4.80
2023-05-01T02:58:47.690Z,4.63
2023-05-01T03:01:17.670Z,4.28
2023-05-01T03:03:48.607Z,4.03
2023-05-01T03:06:22.180Z,5.93
2023-05-01T03:08:53.014Z,5.35
2023-05-01T03:11:23.120Z,6.85
2023-05-01T03:13:53.944Z,6.50
2023-05-01T03:16:24.057Z,6.72
2023-05-01T03:18:54.539Z,5.05
2023-05-01T03:21:24.518Z,5.63
2023-05-01T03:23:55.548Z,5.28
2023-05-01T03:26:25.744Z,5.55
2023-05-01T03:28:56.340Z,4.75
2023-05-01T03:31:27.272Z,7.03
2023-05-01T03:34:00.261Z,4.82
2023-05-01T03:36:30.262Z,6.57
2023-05-01T03:39:00.687Z,4.70
2023-05-01T03:41:48.922Z,5.80
2023-05-01T03:44:26.504Z,6.60
2023-05-01T03:46:56.433Z,5.38
2023-05-01T03:49:31.038Z,7.93
2023-05-01T03:52:00.999Z,6.97
2023-05-01T03:54:31.648Z,5.63
2023-05-01T03:57:21.903Z,6.82
2023-05-01T03:59:53.138Z,7.80
2023-05-01T04:02:24.010Z,5.53
2023-05-01T04:04:54.543Z,5.55
2023-05-01T04:07:25.852Z,6.15
2023-05-01T04:09:56.678Z,6.00
2023-05-01T04:12:26.984Z,8.32
2023-05-01T04:14:57.456Z,5.70
2023-05-01T04:17:27.599Z,4.75
2023-05-01T04:19:58.860Z,7.32
2023-05-01T04:22:29.067Z,8.80
2023-05-01T04:24:58.898Z,9.18
2023-05-01T04:27:29.295Z,6.50
2023-05-01T04:29:59.463Z,4.97
2023-05-01T04:32:31.438Z,8.48
2023-05-01T04:35:01.446Z,7.57
2023-05-01T04:37:32.358Z,7.97
2023-05-01T04:40:02.352Z,6.93
2023-05-01T04:42:33.768Z,7.97
2023-05-01T04:45:05.278Z,8.90
2023-05-01T04:47:38.890Z,5.80
2023-05-01T04:50:09.510Z,6.60
2023-05-01T04:52:40.339Z,7.13
2023-05-01T04:55:11.534Z,7.45
2023-05-01T04:57:54.818Z,8.75
2023-05-01T05:00:25.042Z,9.80
2023-05-01T05:02:58.731Z,8.70
2023-05-01T05:05:29.143Z,8.15
2023-05-01T05:07:59.454Z,8.15
2023-05-01T05:10:59.324Z,9.35
2023-05-01T05:13:42.206Z,5.20
2023-05-01T05:16:16.365Z,8.68
2023-05-01T05:18:46.845Z,8.45
2023-05-01T05:21:16.970Z,9.88
2023-05-01T05:23:54.393Z,11.52
2023-05-01T05:26:24.711Z,7.50
2023-05-01T05:28:55.970Z,10.02
2023-05-01T05:31:26.010Z,6.85
2023-05-01T05:33:56.353Z,6.18
2023-05-01T05:36:28.797Z,7.10
2023-05-01T05:39:00.498Z,7.97
2023-05-01T05:41:31.053Z,7.22
2023-05-01T05:44:04.250Z,8.90
2023-05-01T05:46:34.284Z,5.97
2023-05-01T05:49:04.804Z,9.23
2023-05-01T05:51:34.860Z,8.40
2023-05-01T05:54:05.614Z,5.85
2023-05-01T05:56:37.917Z,6.72
2023-05-01T05:59:08.862Z,7.82
2023-05-01T06:01:38.953Z,7.45
2023-05-01T06:04:09.614Z,8.57
2023-05-01T06:06:42.130Z,6.38
2023-05-01T06:09:13.898Z,7.22
2023-05-01T06:11:43.890Z,12.13
2023-05-01T06:14:14.700Z,8.20
2023-05-01T06:16:44.827Z,8.90
2023-05-01T06:19:15.279Z,9.55
2023-05-01T06:21:46.109Z,8.40
2023-05-01T06:24:17.317Z,10.60
2023-05-01T06:26:52.539Z,10.40
2023-05-01T06:29:23.065Z,10.80
2023-05-01T06:31:53.212Z,11.15
2023-05-01T06:34:24.230Z,10.75
2023-05-01T06:36:57.456Z,11.75
2023-05-01T06:39:27.808Z,10.00
2023-05-01T06:41:57.838Z,11.30
2023-05-01T06:44:42.049Z,8.85
2023-05-01T06:47:12.238Z,12.43
2023-05-01T06:49:44.741Z,9.18
2023-05-01T06:52:14.652Z,10.13
2023-05-01T06:54:44.400Z,10.77
2023-05-01T06:57:14.826Z,9.18
2023-05-01T06:59:44.724Z,11.60
2023-05-01T07:02:14.666Z,10.55
2023-05-01T07:04:45.551Z,9.25
2023-05-01T07:07:15.466Z,9.52
2023-05-01T07:09:46.284Z,8.50
2023-05-01T07:12:16.295Z,8.80
2023-05-01T07:14:46.616Z,10.13
2023-05-01T07:17:17.160Z,10.68
2023-05-01T07:19:47.547Z,11.40
2023-05-01T07:22:17.840Z,9.13
2023-05-01T07:24:48.189Z,12.05
2023-05-01T07:27:18.097Z,11.57
2023-05-01T07:29:48.519Z,10.95
2023-05-01T07:32:18.758Z,12.32
2023-05-01T07:34:49.206Z,14.50
2023-05-01T07:37:19.938Z,12.43
2023-05-01T07:39:50.306Z,11.85
2023-05-01T07:42:20.248Z,12.00
2023-05-01T07:44:52.788Z,13.50
2023-05-01T07:47:23.194Z,12.80
2023-05-01T07:49:53.637Z,12.38
2023-05-01T07:52:23.696Z,10.00
2023-05-01T07:54:53.480Z,12.80
2023-05-01T07:57:26.686Z,11.15
2023-05-01T08:00:00.305Z,15.73
2023-05-01T08:02:30.748Z,12.57
2023-05-01T08:05:01.215Z,11.02
2023-05-01T08:07:31.978Z,10.80
2023-05-01T08:10:02.177Z,10.57
2023-05-01T08:12:32.891Z,11.27
2023-05-01T08:15:02.864Z,12.63
2023-05-01T08:17:33.336Z,11.88
2023-05-01T08:20:03.558Z,10.82
2023-05-01T08:22:33.958Z,11.05
2023-05-01T08:25:03.880Z,11.60
2023-05-01T08:27:34.934Z,12.00
2023-05-01T08:30:05.051Z,9.32
2023-05-01T08:32:35.515Z,11.70
2023-05-01T08:35:05.638Z,9.40
2023-05-01T08:37:36.441Z,12.07
2023-05-01T08:40:09.832Z,11.20
2023-05-01T08:42:40.390Z,12.88
2023-05-01T08:45:11.829Z,10.90
2023-05-01T08:47:42.619Z,12.00
2023-05-01T08:50:15.664Z,12.63
2023-05-01T08:52:46.194Z,10.52
2023-05-01T08:55:17.489Z,9.30
2023-05-01T08:57:48.749Z,9.43
2023-05-01T09:00:23.019Z,11.20
2023-05-01T09:02:53.940Z,11.27
2023-05-01T09:05:24.005Z,13.05
2023-05-01T09:07:54.662Z,10.30
2023-05-01T09:10:26.197Z,11.43
2023-05-01T09:12:59.146Z,13.10
2023-05-01T09:15:31.415Z,11.57
2023-05-01T09:18:03.808Z,13.65
2023-05-01T09:20:38.268Z,15.75
2023-05-01T09:23:08.379Z,12.55
2023-05-01T09:25:39.770Z,10.55
2023-05-01T09:28:09.773Z,12.10
2023-05-01T09:30:40.801Z,13.55
2023-05-01T09:33:11.946Z,12.13
2023-05-01T09:36:00.794Z,15.90
2023-05-01T09:38:31.755Z,11.77
2023-05-01T09:41:10.656Z,14.75
2023-05-01T09:43:40.824Z,12.13
2023-05-01T09:46:13.031Z,13.95
2023-05-01T09:48:53.605Z,9.57
2023-05-01T09:51:29.337Z,12.02
2023-05-01T09:54:01.633Z,11.27
2023-05-01T09:59:21.268Z,11.55
2023-05-01T10:01:52.414Z,13.23
2023-05-01T10:04:35.127Z,13.50
2023-05-01T10:07:15.756Z,10.98
2023-05-01T10:09:45.786Z,11.82
2023-05-01T10:12:28.360Z,12.68
2023-05-01T10:15:03.395Z,11.98
2023-05-01T10:17:42.871Z,12.25
2023-05-01T10:20:14.267Z,11.95
2023-05-01T10:22:45.534Z,9.23
2023-05-01T10:25:16.330Z,12.52
2023-05-01T10:27:46.784Z,8.95
2023-05-01T10:30:17.920Z,11.35
2023-05-01T10:32:48.512Z,9.25
2023-05-01T10:35:26.762Z,8.18
2023-05-01T10:38:07.535Z,8.90
2023-05-01T10:40:46.099Z,10.88
2023-05-01T10:43:27.087Z,7.43
2023-05-01T10:46:22.740Z,11.60
2023-05-01T10:48:53.129Z,8.48
2023-05-01T10:51:27.307Z,9.77
2023-05-01T10:54:16.754Z,6.72
2023-05-01T10:56:46.728Z,6.97
2023-05-01T10:59:17.338Z,8.93
2023-05-01T11:01:53.109Z,6.35
2023-05-01T11:04:23.511Z,8.77
2023-05-01T11:07:18.869Z,8.45
2023-05-01T11:09:56.710Z,5.72
2023-05-01T11:12:48.257Z,6.88
2023-05-01T11:15:35.488Z,8.77
2023-05-01T11:18:07.192Z,5.80
2023-05-01T11:23:07.464Z,8.35
2023-05-01T11:25:37.780Z,5.65
2023-05-01T11:28:10.912Z,6.40
2023-05-01T11:30:44.890Z,5.47
2023-05-01T11:33:18.027Z,7.20
2023-05-01T11:35:57.763Z,6.40
2023-05-01T11:38:27.698Z,6.55
2023-05-01T11:41:00.472Z,4.82
2023-05-01T11:43:30.618Z,7.80
2023-05-01T11:46:04.134Z,8.23
2023-05-01T11:48:34.575Z,9.35
2023-05-01T11:51:17.396Z,8.48
2023-05-01T11:54:10.661Z,9.70
2023-05-01T11:56:42.230Z,7.80
2023-05-01T11:59:15.042Z,8.38
2023-05-01T12:01:48.943Z,7.13
2023-05-01T12:04:31.663Z,6.35
2023-05-01T12:07:03.210Z,7.82
2023-05-01T12:09:34.941Z,5.72
2023-05-01T12:12:05.918Z,6.90
2023-05-01T12:14:35.942Z,7.97
2023-05-01T12:17:10.480Z,5.50
2023-05-01T12:19:50.147Z,6.10
2023-05-01T12:22:20.836Z,6.95
2023-05-01T12:24:57.306Z,4.63
2023-05-01T12:27:27.968Z,7.75
2023-05-01T12:30:00.749Z,7.75
2023-05-01T12:32:34.919Z,4.57
2023-05-01T12:35:16.400Z,6.63
2023-05-01T12:37:47.949Z,5.93
2023-05-01T12:40:20.121Z,6.97
2023-05-01T12:43:00.144Z,9.27
2023-05-01T12:45:30.185Z,8.15
2023-05-01T12:48:00.713Z,5.25
2023-05-01T12:50:30.556Z,6.30
2023-05-01T12:53:04.292Z,6.20
2023-05-01T12:55:37.139Z,6.60
2023-05-01T12:58:07.681Z,8.27
2023-05-01T13:00:48.827Z,7.28
2023-05-01T13:03:28.214Z,5.80
2023-05-01T13:06:03.314Z,7.32
2023-05-01T13:08:36.098Z,9.18
2023-05-01T13:11:15.082Z,8.15
2023-05-01T13:13:47.074Z,4.75
2023-05-01T13:16:18.366Z,5.47
2023-05-01T13:21:26.386Z,6.78
2023-05-01T13:23:58.596Z,5.13
2023-05-01T13:26:34.001Z,4.88
2023-05-01T13:29:06.730Z,12.88
2023-05-01T13:31:36.771Z,9.10
2023-05-01T13:34:06.878Z,10.55
2023-05-01T13:36:37.620Z,8.10
2023-05-01T13:39:07.880Z,5.85
2023-05-01T13:41:43.679Z,7.35
2023-05-01T13:44:14.158Z,5.35
2023-05-01T13:46:44.691Z,5.30
2023-05-01T13:49:16.021Z,4.90
2023-05-01T13:51:47.805Z,4.55
2023-05-01T13:54:19.132Z,4.38
2023-05-01T13:59:18.937Z,7.05
2023-05-01T14:01:49.082Z,6.43
2023-05-01T14:04:22.228Z,6.97
2023-05-01T14:06:52.535Z,4.63
2023-05-01T14:09:23.231Z,8.90
2023-05-01T14:12:00.731Z,5.25
2023-05-01T14:14:31.881Z,6.03
2023-05-01T14:17:01.826Z,6.68
2023-05-01T14:19:31.590Z,6.72
2023-05-01T14:22:01.982Z,5.10
2023-05-01T14:24:31.967Z,4.78
2023-05-01T14:27:03.006Z,5.75
2023-05-01T14:29:33.255Z,5.40
2023-05-01T14:32:07.132Z,8.15
2023-05-01T14:34:37.162Z,5.90
2023-05-01T14:37:07.482Z,7.72
2023-05-01T14:39:37.627Z,8.13
2023-05-01T14:42:12.100Z,7.78
2023-05-01T14:44:44.630Z,7.28
2023-05-01T14:47:23.069Z,6.10
2023-05-01T14:49:56.535Z,5.82
2023-05-01T14:52:26.962Z,8.60
2023-05-01T14:54:57.010Z,6.78
2023-05-01T14:57:29.167Z,6.07
2023-05-01T14:59:59.482Z,9.02
2023-05-01T15:02:31.393Z,9.20
2023-05-01T15:05:02.691Z,12.35
2023-05-01T15:07:33.262Z,7.10
2023-05-01T15:10:03.196Z,8.13
2023-05-01T15:12:33.656Z,7.60
2023-05-01T15:15:04.368Z,7.05
2023-05-01T15:17:35.003Z,11.45
2023-05-01T15:20:05.067Z,6.38
2023-05-01T15:22:34.789Z,8.73
2023-05-01T15:25:05.192Z,9.00
2023-05-01T15:27:34.922Z,9.00
2023-05-01T15:30:06.415Z,7.78
2023-05-01T15:32:36.546Z,9.63
2023-05-01T15:35:07.181Z,10.20
2023-05-01T15:37:37.218Z,8.85
2023-05-01T15:40:10.053Z,8.48
2023-05-01T15:42:41.134Z,9.55
2023-05-01T15:45:12.423Z,9.02
2023-05-01T15:47:42.350Z,9.98
2023-05-01T15:50:13.176Z,9.70
2023-05-01T15:52:43.190Z,9.35
2023-05-01T15:55:14.127Z,7.20
2023-05-01T15:57:50.460Z,8.27
2023-05-01T16:00:22.821Z,7.38
2023-05-01T16:02:53.368Z,7.65
2023-05-01T16:05:23.533Z,8.05
2023-05-01T16:07:56.981Z,8.00
2023-05-01T16:10:26.975Z,6.65
2023-05-01T16:12:57.456Z,9.20
2023-05-01T16:15:27.402Z,11.90
2023-05-01T16:17:57.809Z,12.32
2023-05-01T16:20:30.550Z,14.77
2023-05-01T16:23:00.869Z,14.48
2023-05-01T16:25:30.787Z,12.43
2023-05-01T16:28:01.234Z,12.25
2023-05-01T16:30:31.147Z,12.45
2023-05-01T16:33:04.366Z,12.32
2023-05-01T16:35:34.270Z,16.75
2023-05-01T16:38:04.765Z,14.07
2023-05-01T16:40:34.944Z,10.50
2023-05-01T16:43:05.800Z,12.52
2023-05-01T16:45:35.990Z,11.55
2023-05-01T16:48:06.713Z,14.23
2023-05-01T16:50:42.403Z,9.55
2023-05-01T16:53:12.749Z,12.63
2023-05-01T16:55:42.988Z,14.40
2023-05-01T16:58:13.392Z,11.82
2023-05-01T17:00:44.417Z,11.05
2023-05-01T17:03:16.580Z,11.25
2023-05-01T17:05:46.662Z,14.15
2023-05-01T17:08:17.344Z,16.00
2023-05-01T17:10:47.238Z,15.52
2023-05-01T17:13:17.578Z,14.00
2023-05-01T17:15:47.674Z,13.57
2023-05-01T17:18:18.047Z,11.75
2023-05-01T17:20:49.653Z,13.90
2023-05-01T17:23:20.040Z,12.50
2023-05-01T17:25:49.962Z,13.65
2023-05-01T17:28:20.378Z,15.02
2023-05-01T17:30:50.421Z,15.35
2023-05-01T17:33:20.848Z,16.80
2023-05-01T17:35:50.919Z,12.85
2023-05-01T17:38:21.286Z,12.45
2023-05-01T17:40:51.225Z,16.70
2023-05-01T17:43:21.956Z,16.52
2023-05-01T17:45:51.929Z,15.63
2023-05-01T17:48:23.024Z,14.35
2023-05-01T17:50:53.295Z,14.02
2023-05-01T17:53:24.418Z,15.57
2023-05-01T17:55:54.540Z,13.38
2023-05-01T17:58:24.915Z,14.60
2023-05-01T18:00:57.008Z,14.18
2023-05-01T18:03:29.573Z,15.15
2023-05-01T18:06:03.619Z,13.38
2023-05-01T18:08:34.084Z,14.32
2023-05-01T18:11:05.008Z,13.52
2023-05-01T18:13:39.307Z,14.50
2023-05-01T18:16:09.667Z,13.90
2023-05-01T18:18:40.286Z,12.85
2023-05-01T18:21:10.292Z,12.13
2023-05-01T18:23:41.038Z,14.57
2023-05-01T18:26:10.933Z,12.75
2023-05-01T18:28:41.250Z,13.57
2023-05-01T18:31:11.186Z,15.32
2023-05-01T18:33:41.727Z,13.85
2023-05-01T18:36:11.838Z,17.27
2023-05-01T18:38:42.300Z,15.50
2023-05-01T18:41:12.977Z,15.32
2023-05-01T18:43:44.401Z,14.23
2023-05-01T18:46:14.354Z,16.13
2023-05-01T18:48:44.770Z,12.10
2023-05-01T18:51:15.896Z,14.40
2023-05-01T18:53:46.259Z,13.95
2023-05-01T18:56:16.189Z,15.82
2023-05-01T18:58:46.633Z,15.93
2023-05-01T19:01:16.706Z,12.90
2023-05-01T19:03:47.225Z,13.70
2023-05-01T19:06:17.231Z,15.18
2023-05-01T19:08:47.653Z,15.10
2023-05-01T19:11:18.097Z,13.13
2023-05-01T19:13:48.729Z,16.92
2023-05-01T19:16:18.806Z,15.65
2023-05-01T19:18:49.286Z,13.85
2023-05-01T19:21:19.375Z,16.40
2023-05-01T19:23:50.233Z,14.27
2023-05-01T19:26:20.164Z,17.02
2023-05-01T19:28:50.562Z,15.20
2023-05-01T19:31:20.913Z,15.55
2023-05-01T19:33:51.392Z,16.17
2023-05-01T19:36:23.227Z,13.27
2023-05-01T19:41:22.907Z,16.95
2023-05-01T19:43:52.714Z,18.83
2023-05-01T19:46:23.110Z,15.30
2023-05-01T19:48:53.470Z,19.33
2023-05-01T19:51:23.741Z,18.90
2023-05-01T19:53:53.507Z,14.75
2023-05-01T19:56:25.708Z,19.27
2023-05-01T19:58:56.201Z,18.98
2023-05-01T20:01:26.696Z,19.52
2023-05-01T20:03:56.787Z,17.08
2023-05-01T20:06:27.558Z,16.27
2023-05-01T20:08:57.580Z,16.45
2023-05-01T20:11:28.159Z,20.60
2023-05-01T20:13:58.200Z,17.05
2023-05-01T20:16:29.123Z,18.73
2023-05-01T20:18:59.070Z,15.35
2023-05-01T20:21:29.487Z,25.17
2023-05-01T20:23:59.450Z,21.65
2023-05-01T20:26:29.890Z,19.17
2023-05-01T20:28:59.908Z,15.32
2023-05-01T20:31:30.386Z,17.85
2023-05-01T20:34:00.360Z,16.48
2023-05-01T20:36:30.758Z,17.90
2023-05-01T20:39:00.646Z,15.02
2023-05-01T20:41:32.006Z,15.85
2023-05-01T20:44:03.469Z,16.73
2023-05-01T20:46:33.860Z,12.95
2023-05-01T20:49:03.846Z,19.15
2023-05-01T20:51:34.302Z,23.00
2023-05-01T20:54:04.215Z,19.67
2023-05-01T20:56:34.569Z,23.65
2023-05-01T20:59:06.002Z,20.83
2023-05-01T21:01:36.699Z,18.27
2023-05-01T21:04:07.388Z,16.88
2023-05-01T21:06:37.987Z,21.08
2023-05-01T21:09:09.630Z,19.35
2023-05-01T21:11:42.941Z,16.38
2023-05-01T21:14:13.079Z,19.33
2023-05-01T21:16:43.890Z,18.27
2023-05-01T21:19:16.510Z,21.40
2023-05-01T21:21:46.506Z,18.08
2023-05-01T21:24:24.821Z,19.25
2023-05-01T21:26:56.006Z,20.20
2023-05-01T21:29:26.438Z,20.90
2023-05-01T21:31:56.467Z,30.90
2023-05-01T21:34:26.954Z,20.00
2023-05-01T21:36:56.859Z,19.35
2023-05-01T21:39:27.890Z,20.00
2023-05-01T21:41:58.534Z,19.77
2023-05-01T21:44:32.152Z,18.67
2023-05-01T21:47:03.630Z,17.77
2023-05-01T21:49:33.904Z,25.10
2023-05-01T21:52:04.343Z,22.35
2023-05-01T21:54:35.902Z,20.48
2023-05-01T21:57:09.226Z,18.10
2023-05-01T21:59:40.215Z,20.67
2023-05-01T22:02:12.112Z,24.80
2023-05-01T22:04:42.644Z,18.02
2023-05-01T22:07:13.323Z,24.55
2023-05-01T22:09:43.279Z,21.67
2023-05-01T22:12:13.637Z,20.08
2023-05-01T22:14:47.490Z,22.15
2023-05-01T22:17:25.089Z,24.52
2023-05-01T22:19:55.208Z,24.55
2023-05-01T22:22:25.669Z,18.77
2023-05-01T22:24:55.600Z,25.50
2023-05-01T22:27:25.948Z,22.88
2023-05-01T22:29:55.891Z,20.95
2023-05-01T22:32:26.468Z,21.65
2023-05-01T22:34:56.720Z,19.80
2023-05-01T22:37:27.388Z,20.05
2023-05-01T22:39:57.837Z,27.05
2023-05-01T22:42:28.500Z,16.88
2023-05-01T22:44:58.455Z,21.05
2023-05-01T22:47:28.915Z,21.38
2023-05-01T22:49:59.332Z,23.30
2023-05-01T22:52:29.834Z,20.52
2023-05-01T22:54:59.840Z,19.80
2023-05-01T22:57:30.126Z,20.65
2023-05-01T23:00:00.557Z,23.85
2023-05-01T23:02:31.486Z,21.20
2023-05-01T23:05:01.402Z,20.95
2023-05-01T23:07:34.565Z,19.83
2023-05-01T23:10:04.503Z,22.27
2023-05-01T23:12:35.181Z,16.90
2023-05-01T23:15:05.863Z,21.17
2023-05-01T23:17:37.155Z,23.10
2023-05-01T23:20:14.108Z,20.13
2023-05-01T23:22:44.002Z,23.13
2023-05-01T23:25:15.305Z,21.15
2023-05-01T23:27:49.465Z,25.92
2023-05-01T23:30:23.134Z,21.90
2023-05-01T23:32:53.524Z,21.70
2023-05-01T23:35:27.164Z,22.05
2023-05-01T23:37:57.176Z,23.45
2023-05-01T23:40:27.576Z,21.27
2023-05-01T23:42:57.332Z,20.33
2023-05-01T23:45:27.936Z,23.30
2023-05-01T23:47:58.356Z,25.33
2023-05-01T23:50:28.986Z,24.27
2023-05-01T23:52:59.253Z,28.20
2023-05-01T23:55:29.689Z,21.30
2023-05-01T23:57:59.586Z,20.95
